sensor_id;sensor_type;location;lat;lon;timestamp;pressure;altitude;pressure_sealevel;temperature;humidity
14800;BME280;7491;57.750;11.970;2023-07-09T00:00:42;75917.00;;;-142.11;100.00
14800;BME280;7491;57.750;11.970;2023-07-09T00:03:14;75925.16;;;-142.11;100.00
14800;BME280;7491;57.750;11.970;2023-07-09T00:05:41;75923.13;;;-142.11;100.00
14800;BME280;7491;57.750;11.970;2023-07-09T00:08:21;75931.28;;;-142.11;100.00
14800;BME280;7491;57.750;11.970;2023-07-09T00:10:50;75933.31;;;-142.11;100.00
14800;BME280;7491;57.750;11.970;2023-07-09T00:13:17;75943.50;;;-142.11;100.00
14800;BME280;7491;57.750;11.970;2023-07-09T00:15:44;75947.59;;;-142.11;100.00
14800;BME280;7491;57.750;11.970;2023-07-09T00:18:11;75947.59;;;-142.11;100.00
14800;BME280;7491;57.750;11.970;2023-07-09T00:20:39;75957.78;;;-142.11;100.00
14800;BME280;7491;57.750;11.970;2023-07-09T00:23:07;75976.13;;;-142.11;100.00
14800;BME280;7491;57.750;11.970;2023-07-09T00:25:34;75976.13;;;-142.11;100.00
14800;BME280;7491;57.750;11.970;2023-07-09T00:28:01;75967.97;;;-142.11;100.00
14800;BME280;7491;57.750;11.970;2023-07-09T00:30:28;75963.91;;;-142.11;100.00
14800;BME280;7491;57.750;11.970;2023-07-09T00:32:55;75976.13;;;-142.11;100.00
14800;BME280;7491;57.750;11.970;2023-07-09T00:35:23;75972.06;;;-142.11;100.00
14800;BME280;7491;57.750;11.970;2023-07-09T00:37:52;75972.06;;;-142.11;100.00
14800;BME280;7491;57.750;11.970;2023-07-09T00:40:21;75974.09;;;-142.11;100.00
14800;BME280;7491;57.750;11.970;2023-07-09T00:42:50;75990.41;;;-142.11;100.00
14800;BME280;7491;57.750;11.970;2023-07-09T00:45:21;75996.50;;;-142.11;100.00
14800;BME280;7491;57.750;11.970;2023-07-09T00:47:54;75992.44;;;-142.11;100.00
14800;BME280;7491;57.750;11.970;2023-07-09T00:50:33;75986.31;;;-142.11;100.00
14800;BME280;7491;57.750;11.970;2023-07-09T00:53:04;75998.56;;;-142.11;100.00
14800;BME280;7491;57.750;11.970;2023-07-09T00:55:38;76002.63;;;-142.11;100.00
14800;BME280;7491;57.750;11.970;2023-07-09T00:58:09;76008.75;;;-142.11;100.00
14800;BME280;7491;57.750;11.970;2023-07-09T01:00:40;76010.78;;;-142.11;100.00
14800;BME280;7491;57.750;11.970;2023-07-09T01:03:15;76012.81;;;-142.11;100.00
14800;BME280;7491;57.750;11.970;2023-07-09T01:05:45;76004.66;;;-142.11;100.00
14800;BME280;7491;57.750;11.970;2023-07-09T01:08:18;76010.78;;;-142.11;100.00
14800;BME280;7491;57.750;11.970;2023-07-09T01:10:46;76020.97;;;-142.11;100.00
14800;BME280;7491;57.750;11.970;2023-07-09T01:13:13;76012.81;;;-142.11;100.00
14800;BME280;7491;57.750;11.970;2023-07-09T01:15:41;76012.81;;;-142.11;100.00
14800;BME280;7491;57.750;11.970;2023-07-09T01:18:08;76018.94;;;-142.11;100.00
14800;BME280;7491;57.750;11.970;2023-07-09T01:20:38;76033.22;;;-142.11;100.00
14800;BME280;7491;57.750;11.970;2023-07-09T01:23:07;76043.41;;;-142.11;100.00
14800;BME280;7491;57.750;11.970;2023-07-09T01:25:36;76037.28;;;-142.11;100.00
14800;BME280;7491;57.750;11.970;2023-07-09T01:28:04;76039.31;;;-142.11;100.00
14800;BME280;7491;57.750;11.970;2023-07-09T01:30:36;76043.41;;;-142.11;100.00
14800;BME280;7491;57.750;11.970;2023-07-09T01:33:04;76063.78;;;-142.11;100.00
14800;BME280;7491;57.750;11.970;2023-07-09T01:35:33;76055.63;;;-142.11;100.00
14800;BME280;7491;57.750;11.970;2023-07-09T01:38:01;76065.81;;;-142.11;100.00
14800;BME280;7491;57.750;11.970;2023-07-09T01:40:30;76049.50;;;-142.11;100.00
14800;BME280;7491;57.750;11.970;2023-07-09T01:42:58;76045.44;;;-142.11;100.00
14800;BME280;7491;57.750;11.970;2023-07-09T01:45:26;76053.59;;;-142.11;100.00
14800;BME280;7491;57.750;11.970;2023-07-09T01:47:52;76049.50;;;-142.11;100.00
14800;BME280;7491;57.750;11.970;2023-07-09T01:50:21;76053.59;;;-142.11;100.00
14800;BME280;7491;57.750;11.970;2023-07-09T01:52:49;76063.78;;;-142.11;100.00
14800;BME280;7491;57.750;11.970;2023-07-09T01:55:17;76057.66;;;-142.11;100.00
14800;BME280;7491;57.750;11.970;2023-07-09T01:57:45;76053.59;;;-142.11;100.00
14800;BME280;7491;57.750;11.970;2023-07-09T02:00:15;76061.75;;;-142.11;100.00
14800;BME280;7491;57.750;11.970;2023-07-09T02:02:44;76053.59;;;-142.11;100.00
14800;BME280;7491;57.750;11.970;2023-07-09T02:05:12;76059.69;;;-142.11;100.00
14800;BME280;7491;57.750;11.970;2023-07-09T02:07:40;76071.94;;;-142.11;100.00
14800;BME280;7491;57.750;11.970;2023-07-09T02:10:08;76078.06;;;-142.11;100.00
14800;BME280;7491;57.750;11.970;2023-07-09T02:12:35;76069.91;;;-142.11;100.00
14800;BME280;7491;57.750;11.970;2023-07-09T02:15:04;76080.09;;;-142.11;100.00
14800;BME280;7491;57.750;11.970;2023-07-09T02:17:31;76078.06;;;-142.11;100.00
14800;BME280;7491;57.750;11.970;2023-07-09T02:19:58;76071.94;;;-142.11;100.00
14800;BME280;7491;57.750;11.970;2023-07-09T02:22:24;76067.84;;;-142.11;100.00
14800;BME280;7491;57.750;11.970;2023-07-09T02:24:51;76065.81;;;-142.11;100.00
14800;BME280;7491;57.750;11.970;2023-07-09T02:27:19;76065.81;;;-142.11;100.00
14800;BME280;7491;57.750;11.970;2023-07-09T02:29:46;76061.75;;;-142.11;100.00
14800;BME280;7491;57.750;11.970;2023-07-09T02:32:18;76059.69;;;-142.11;100.00
14800;BME280;7491;57.750;11.970;2023-07-09T02:34:45;76067.84;;;-142.11;100.00
14800;BME280;7491;57.750;11.970;2023-07-09T02:37:15;76078.06;;;-142.11;100.00
14800;BME280;7491;57.750;11.970;2023-07-09T02:39:44;76067.84;;;-142.11;100.00
14800;BME280;7491;57.750;11.970;2023-07-09T02:42:12;76067.84;;;-142.11;100.00
14800;BME280;7491;57.750;11.970;2023-07-09T02:44:40;76073.97;;;-142.11;100.00
14800;BME280;7491;57.750;11.970;2023-07-09T02:47:07;76078.06;;;-142.11;100.00
14800;BME280;7491;57.750;11.970;2023-07-09T02:49:35;76076.00;;;-142.11;100.00
14800;BME280;7491;57.750;11.970;2023-07-09T02:52:03;76073.97;;;-142.11;100.00
14800;BME280;7491;57.750;11.970;2023-07-09T02:54:30;76069.91;;;-142.11;100.00
14800;BME280;7491;57.750;11.970;2023-07-09T02:56:57;76069.91;;;-142.11;100.00
14800;BME280;7491;57.750;11.970;2023-07-09T02:59:24;76065.81;;;-142.11;100.00
14800;BME280;7491;57.750;11.970;2023-07-09T03:01:52;76076.00;;;-142.11;100.00
14800;BME280;7491;57.750;11.970;2023-07-09T03:04:18;76078.06;;;-142.11;100.00
14800;BME280;7491;57.750;11.970;2023-07-09T03:06:47;76080.09;;;-142.11;100.00
14800;BME280;7491;57.750;11.970;2023-07-09T03:09:13;76080.09;;;-142.11;100.00
14800;BME280;7491;57.750;11.970;2023-07-09T03:11:40;76102.50;;;-142.11;100.00
14800;BME280;7491;57.750;11.970;2023-07-09T03:14:08;76073.97;;;-142.11;100.00
14800;BME280;7491;57.750;11.970;2023-07-09T03:16:35;76088.25;;;-142.11;100.00
14800;BME280;7491;57.750;11.970;2023-07-09T03:19:03;76067.84;;;-142.11;100.00
14800;BME280;7491;57.750;11.970;2023-07-09T03:21:31;76080.09;;;-142.11;100.00
14800;BME280;7491;57.750;11.970;2023-07-09T03:23:59;76082.13;;;-142.11;100.00
14800;BME280;7491;57.750;11.970;2023-07-09T03:26:26;76078.06;;;-142.11;100.00
14800;BME280;7491;57.750;11.970;2023-07-09T03:28:53;76076.00;;;-142.11;100.00
14800;BME280;7491;57.750;11.970;2023-07-09T03:31:21;76067.84;;;-142.11;100.00
14800;BME280;7491;57.750;11.970;2023-07-09T03:33:48;76080.09;;;-142.11;100.00
14800;BME280;7491;57.750;11.970;2023-07-09T03:36:15;76078.06;;;-142.11;100.00
14800;BME280;7491;57.750;11.970;2023-07-09T03:38:42;76078.06;;;-142.11;100.00
14800;BME280;7491;57.750;11.970;2023-07-09T03:41:10;76063.78;;;-142.11;100.00
14800;BME280;7491;57.750;11.970;2023-07-09T03:43:37;76076.00;;;-142.11;100.00
14800;BME280;7491;57.750;11.970;2023-07-09T03:46:04;76071.94;;;-142.11;100.00
14800;BME280;7491;57.750;11.970;2023-07-09T03:48:30;76069.91;;;-142.11;100.00
14800;BME280;7491;57.750;11.970;2023-07-09T03:50:57;76065.81;;;-142.11;100.00
14800;BME280;7491;57.750;11.970;2023-07-09T03:53:24;76065.81;;;-142.11;100.00
14800;BME280;7491;57.750;11.970;2023-07-09T03:55:55;76055.63;;;-142.11;100.00
14800;BME280;7491;57.750;11.970;2023-07-09T03:58:23;76057.66;;;-142.11;100.00
14800;BME280;7491;57.750;11.970;2023-07-09T04:00:51;76061.75;;;-142.11;100.00
14800;BME280;7491;57.750;11.970;2023-07-09T04:03:18;76047.47;;;-142.11;100.00
14800;BME280;7491;57.750;11.970;2023-07-09T04:05:44;76047.47;;;-142.11;100.00
14800;BME280;7491;57.750;11.970;2023-07-09T04:08:11;76037.28;;;-142.11;100.00
14800;BME280;7491;57.750;11.970;2023-07-09T04:10:38;76023.00;;;-142.11;100.00
14800;BME280;7491;57.750;11.970;2023-07-09T04:13:05;76012.81;;;-142.11;100.00
14800;BME280;7491;57.750;11.970;2023-07-09T04:15:33;76018.94;;;-142.11;100.00
14800;BME280;7491;57.750;11.970;2023-07-09T04:18:00;76016.91;;;-142.11;100.00
14800;BME280;7491;57.750;11.970;2023-07-09T04:20:27;76006.72;;;-142.11;100.00
14800;BME280;7491;57.750;11.970;2023-07-09T04:22:53;76004.66;;;-142.11;100.00
14800;BME280;7491;57.750;11.970;2023-07-09T04:25:20;76002.63;;;-142.11;100.00
14800;BME280;7491;57.750;11.970;2023-07-09T04:27:47;75996.50;;;-142.11;100.00
14800;BME280;7491;57.750;11.970;2023-07-09T04:30:15;75988.34;;;-142.11;100.00
14800;BME280;7491;57.750;11.970;2023-07-09T04:32:43;75980.22;;;-142.11;100.00
14800;BME280;7491;57.750;11.970;2023-07-09T04:35:11;75976.13;;;-142.11;100.00
14800;BME280;7491;57.750;11.970;2023-07-09T04:37:38;75984.28;;;-142.11;100.00
14800;BME280;7491;57.750;11.970;2023-07-09T04:40:07;75972.06;;;-142.11;100.00
14800;BME280;7491;57.750;11.970;2023-07-09T04:42:36;75965.94;;;-142.11;100.00
14800;BME280;7491;57.750;11.970;2023-07-09T04:45:03;75955.75;;;-142.11;100.00
14800;BME280;7491;57.750;11.970;2023-07-09T04:47:30;75945.56;;;-142.11;100.00
14800;BME280;7491;57.750;11.970;2023-07-09T04:49:58;75941.47;;;-142.11;100.00
14800;BME280;7491;57.750;11.970;2023-07-09T04:52:25;75929.25;;;-142.11;100.00
14800;BME280;7491;57.750;11.970;2023-07-09T04:54:56;75919.06;;;-142.11;100.00
14800;BME280;7491;57.750;11.970;2023-07-09T04:59:54;75892.56;;;-142.11;100.00
14800;BME280;7491;57.750;11.970;2023-07-09T05:02:21;75882.38;;;-142.11;100.00
14800;BME280;7491;57.750;11.970;2023-07-09T05:04:48;75884.41;;;-142.11;100.00
14800;BME280;7491;57.750;11.970;2023-07-09T05:07:16;75872.19;;;-142.11;100.00
14800;BME280;7491;57.750;11.970;2023-07-09T05:09:43;75861.97;;;-142.11;100.00
14800;BME280;7491;57.750;11.970;2023-07-09T05:12:10;75845.69;;;-142.11;100.00
14800;BME280;7491;57.750;11.970;2023-07-09T05:14:37;75823.25;;;-142.11;100.00
14800;BME280;7491;57.750;11.970;2023-07-09T05:17:04;75817.13;;;-142.11;100.00
14800;BME280;7491;57.750;11.970;2023-07-09T05:19:31;75800.84;;;-142.11;100.00
14800;BME280;7491;57.750;11.970;2023-07-09T05:21:58;75802.88;;;-142.11;100.00
14800;BME280;7491;57.750;11.970;2023-07-09T05:24:26;75792.69;;;-142.11;100.00
14800;BME280;7491;57.750;11.970;2023-07-09T05:26:53;75780.44;;;-142.11;100.00
14800;BME280;7491;57.750;11.970;2023-07-09T05:29:20;75764.16;;;-142.11;100.00
14800;BME280;7491;57.750;11.970;2023-07-09T05:31:47;75745.81;;;-142.11;100.00
14800;BME280;7491;57.750;11.970;2023-07-09T05:34:14;75749.88;;;-142.11;100.00
14800;BME280;7491;57.750;11.970;2023-07-09T05:36:40;75729.50;;;-142.11;100.00
14800;BME280;7491;57.750;11.970;2023-07-09T05:39:07;75727.44;;;-142.11;100.00
14800;BME280;7491;57.750;11.970;2023-07-09T05:41:35;75700.97;;;-142.11;100.00
14800;BME280;7491;57.750;11.970;2023-07-09T05:44:02;75688.72;;;-142.11;100.00
14800;BME280;7491;57.750;11.970;2023-07-09T05:46:34;75674.47;;;-142.11;100.00
14800;BME280;7491;57.750;11.970;2023-07-09T05:49:02;75654.06;;;-142.11;100.00
14800;BME280;7491;57.750;11.970;2023-07-09T05:51:29;75617.38;;;-142.11;100.00
14800;BME280;7491;57.750;11.970;2023-07-09T05:53:56;75599.03;;;-142.11;100.00
14800;BME280;7491;57.750;11.970;2023-07-09T05:56:23;75586.81;;;-142.11;100.00
14800;BME280;7491;57.750;11.970;2023-07-09T05:58:51;75560.31;;;-142.11;100.00
14800;BME280;7491;57.750;11.970;2023-07-09T06:01:18;75554.22;;;-142.11;100.00
14800;BME280;7491;57.750;11.970;2023-07-09T06:03:46;75554.22;;;-142.11;100.00
14800;BME280;7491;57.750;11.970;2023-07-09T06:06:12;75533.81;;;-142.11;100.00
14800;BME280;7491;57.750;11.970;2023-07-09T06:08:39;75523.63;;;-142.11;100.00
14800;BME280;7491;57.750;11.970;2023-07-09T06:11:06;75507.34;;;-142.11;100.00
14800;BME280;7491;57.750;11.970;2023-07-09T06:13:33;75486.94;;;-142.11;100.00
14800;BME280;7491;57.750;11.970;2023-07-09T06:16:01;75476.75;;;-142.11;100.00
14800;BME280;7491;57.750;11.970;2023-07-09T06:18:28;75474.72;;;-142.11;100.00
14800;BME280;7491;57.750;11.970;2023-07-09T06:20:57;75444.16;;;-142.11;100.00
14800;BME280;7491;57.750;11.970;2023-07-09T06:23:24;75427.84;;;-142.11;100.00
14800;BME280;7491;57.750;11.970;2023-07-09T06:25:51;75407.47;;;-142.11;100.00
14800;BME280;7491;57.750;11.970;2023-07-09T06:28:19;75409.50;;;-142.11;100.00
14800;BME280;7491;57.750;11.970;2023-07-09T06:30:47;75385.03;;;-142.11;100.00
14800;BME280;7491;57.750;11.970;2023-07-09T06:33:16;75374.84;;;-142.11;100.00
14800;BME280;7491;57.750;11.970;2023-07-09T06:35:46;75358.56;;;-142.11;100.00
14800;BME280;7491;57.750;11.970;2023-07-09T06:38:14;75340.22;;;-142.11;100.00
14800;BME280;7491;57.750;11.970;2023-07-09T06:40:41;75307.59;;;-142.11;100.00
14800;BME280;7491;57.750;11.970;2023-07-09T06:43:08;75289.25;;;-142.11;100.00
14800;BME280;7491;57.750;11.970;2023-07-09T06:45:34;75260.72;;;-142.11;100.00
14800;BME280;7491;57.750;11.970;2023-07-09T06:48:01;75250.53;;;-142.11;100.00
14800;BME280;7491;57.750;11.970;2023-07-09T06:50:32;75228.13;;;-142.11;100.00
14800;BME280;7491;57.750;11.970;2023-07-09T06:52:59;75197.56;;;-142.11;100.00
14800;BME280;7491;57.750;11.970;2023-07-09T06:55:26;75160.88;;;-142.11;100.00
14800;BME280;7491;57.750;11.970;2023-07-09T06:57:53;75136.41;;;-142.11;100.00
14800;BME280;7491;57.750;11.970;2023-07-09T07:00:20;75099.72;;;-142.11;100.00
14800;BME280;7491;57.750;11.970;2023-07-09T07:02:46;75075.28;;;-142.11;100.00
14800;BME280;7491;57.750;11.970;2023-07-09T07:05:13;75065.09;;;-142.11;100.00
14800;BME280;7491;57.750;11.970;2023-07-09T07:07:41;75044.72;;;-142.11;100.00
14800;BME280;7491;57.750;11.970;2023-07-09T07:10:08;75010.06;;;-142.11;100.00
14800;BME280;7491;57.750;11.970;2023-07-09T07:12:42;74987.66;;;-142.11;100.00
14800;BME280;7491;57.750;11.970;2023-07-09T07:15:10;74959.13;;;-142.11;100.00
14800;BME280;7491;57.750;11.970;2023-07-09T07:17:38;74942.81;;;-142.11;100.00
14800;BME280;7491;57.750;11.970;2023-07-09T07:20:06;74906.13;;;-142.11;100.00
14800;BME280;7491;57.750;11.970;2023-07-09T07:22:33;74881.69;;;-142.11;100.00
14800;BME280;7491;57.750;11.970;2023-07-09T07:25:01;74865.38;;;-142.11;100.00
14800;BME280;7491;57.750;11.970;2023-07-09T07:27:28;74834.81;;;-142.11;100.00
14800;BME280;7491;57.750;11.970;2023-07-09T07:29:55;74816.47;;;-142.11;100.00
14800;BME280;7491;57.750;11.970;2023-07-09T07:32:21;74804.25;;;-142.11;98.25
14800;BME280;7491;57.750;11.970;2023-07-09T07:34:48;74794.06;;;-142.11;95.58
14800;BME280;7491;57.750;11.970;2023-07-09T07:37:15;74777.75;;;-142.11;94.91
14800;BME280;7491;57.750;11.970;2023-07-09T07:39:42;74777.75;;;-142.11;94.83
14800;BME280;7491;57.750;11.970;2023-07-09T07:42:10;74755.34;;;-142.11;94.97
14800;BME280;7491;57.750;11.970;2023-07-09T07:44:37;74734.97;;;-142.11;95.78
14800;BME280;7491;57.750;11.970;2023-07-09T07:47:04;74753.31;;;-142.11;93.67
14800;BME280;7491;57.750;11.970;2023-07-09T07:49:31;74737.00;;;-142.11;93.58
14800;BME280;7491;57.750;11.970;2023-07-09T07:51:58;74720.72;;;-142.11;93.99
14800;BME280;7491;57.750;11.970;2023-07-09T07:54:28;74724.78;;;-142.11;91.66
14800;BME280;7491;57.750;11.970;2023-07-09T07:56:56;74702.38;;;-142.11;94.77
14800;BME280;7491;57.750;11.970;2023-07-09T07:59:24;74686.06;;;-142.11;93.87
14800;BME280;7491;57.750;11.970;2023-07-09T08:01:51;74682.00;;;-142.11;92.50
14800;BME280;7491;57.750;11.970;2023-07-09T08:04:18;74706.44;;;-142.11;89.39
14800;BME280;7491;57.750;11.970;2023-07-09T08:06:45;74700.34;;;-142.11;93.16
14800;BME280;7491;57.750;11.970;2023-07-09T08:09:11;74698.28;;;-142.11;93.44
14800;BME280;7491;57.750;11.970;2023-07-09T08:11:38;74730.91;;;-142.11;88.60
14800;BME280;7491;57.750;11.970;2023-07-09T08:14:05;74745.16;;;-142.11;90.15
14800;BME280;7491;57.750;11.970;2023-07-09T08:16:33;74769.63;;;-142.11;88.84
14800;BME280;7491;57.750;11.970;2023-07-09T08:19:00;74769.63;;;-142.11;86.28
14800;BME280;7491;57.750;11.970;2023-07-09T08:21:27;74785.91;;;-142.11;89.42
14800;BME280;7491;57.750;11.970;2023-07-09T08:23:53;74785.91;;;-142.11;90.99
14800;BME280;7491;57.750;11.970;2023-07-09T08:26:20;74753.31;;;-142.11;93.58
14800;BME280;7491;57.750;11.970;2023-07-09T08:28:49;74775.72;;;-142.11;89.61
14800;BME280;7491;57.750;11.970;2023-07-09T08:31:16;74796.09;;;-142.11;90.51
14800;BME280;7491;57.750;11.970;2023-07-09T08:33:44;74804.25;;;-142.11;89.94
14800;BME280;7491;57.750;11.970;2023-07-09T08:36:11;74810.38;;;-142.11;90.17
14800;BME280;7491;57.750;11.970;2023-07-09T08:38:37;74781.84;;;-142.11;90.68
14800;BME280;7491;57.750;11.970;2023-07-09T08:41:08;74796.09;;;-142.11;90.70
14800;BME280;7491;57.750;11.970;2023-07-09T08:43:50;74785.91;;;-142.11;89.98
14800;BME280;7491;57.750;11.970;2023-07-09T08:46:30;74767.56;;;-142.11;90.96
14800;BME280;7491;57.750;11.970;2023-07-09T08:49:02;74755.34;;;-142.11;94.26
14800;BME280;7491;57.750;11.970;2023-07-09T08:51:35;74724.78;;;-142.11;94.38
14800;BME280;7491;57.750;11.970;2023-07-09T08:54:08;74720.72;;;-142.11;91.27
14800;BME280;7491;57.750;11.970;2023-07-09T08:56:39;74726.81;;;-142.11;89.29
14800;BME280;7491;57.750;11.970;2023-07-09T08:59:08;74714.59;;;-142.11;92.64
14800;BME280;7491;57.750;11.970;2023-07-09T09:01:41;74716.63;;;-142.11;91.14
14800;BME280;7491;57.750;11.970;2023-07-09T09:04:19;74700.34;;;-142.11;90.72
14800;BME280;7491;57.750;11.970;2023-07-09T09:06:50;74696.25;;;-142.11;88.49
14800;BME280;7491;57.750;11.970;2023-07-09T09:09:28;74706.44;;;-142.11;87.35
14800;BME280;7491;57.750;11.970;2023-07-09T09:12:04;74698.28;;;-142.11;88.63
14800;BME280;7491;57.750;11.970;2023-07-09T09:14:37;74682.00;;;-142.11;91.04
14800;BME280;7491;57.750;11.970;2023-07-09T09:17:14;74651.44;;;-142.11;91.27
14800;BME280;7491;57.750;11.970;2023-07-09T09:19:47;74647.34;;;-142.11;89.41
14800;BME280;7491;57.750;11.970;2023-07-09T09:22:17;74645.31;;;-142.11;88.59
14800;BME280;7491;57.750;11.970;2023-07-09T09:24:55;74649.41;;;-142.11;88.92
14800;BME280;7491;57.750;11.970;2023-07-09T09:27:24;74651.44;;;-142.11;88.98
14800;BME280;7491;57.750;11.970;2023-07-09T09:29:51;74661.63;;;-142.11;91.07
14800;BME280;7491;57.750;11.970;2023-07-09T09:32:23;74669.78;;;-142.11;90.80
14800;BME280;7491;57.750;11.970;2023-07-09T09:34:53;74655.50;;;-142.11;93.51
14800;BME280;7491;57.750;11.970;2023-07-09T09:37:27;74645.31;;;-142.11;93.75
14800;BME280;7491;57.750;11.970;2023-07-09T09:39:54;74641.25;;;-142.11;94.32
14800;BME280;7491;57.750;11.970;2023-07-09T09:42:23;74614.75;;;-142.11;100.00
14800;BME280;7491;57.750;11.970;2023-07-09T09:44:50;74614.75;;;-142.11;96.03
14800;BME280;7491;57.750;11.970;2023-07-09T09:47:17;74645.31;;;-142.11;94.85
14800;BME280;7491;57.750;11.970;2023-07-09T09:49:44;74679.97;;;-142.11;95.35
14800;BME280;7491;57.750;11.970;2023-07-09T09:52:17;74694.22;;;-142.11;95.82
14800;BME280;7491;57.750;11.970;2023-07-09T09:54:50;74698.28;;;-142.11;94.62
14800;BME280;7491;57.750;11.970;2023-07-09T09:57:20;74688.09;;;-142.11;94.91
14800;BME280;7491;57.750;11.970;2023-07-09T09:59:47;74688.09;;;-142.11;94.17
14800;BME280;7491;57.750;11.970;2023-07-09T10:02:17;74694.22;;;-142.11;93.66
14800;BME280;7491;57.750;11.970;2023-07-09T10:04:44;74686.06;;;-142.11;93.42
14800;BME280;7491;57.750;11.970;2023-07-09T10:07:21;74677.91;;;-142.11;93.99
14800;BME280;7491;57.750;11.970;2023-07-09T10:09:51;74682.00;;;-142.11;94.28
14800;BME280;7491;57.750;11.970;2023-07-09T10:12:30;74690.16;;;-142.11;93.99
14800;BME280;7491;57.750;11.970;2023-07-09T10:15:11;74690.16;;;-142.11;94.15
14800;BME280;7491;57.750;11.970;2023-07-09T10:17:45;74700.34;;;-142.11;96.14
14800;BME280;7491;57.750;11.970;2023-07-09T10:20:22;74698.28;;;-142.11;95.94
14800;BME280;7491;57.750;11.970;2023-07-09T10:22:54;74704.41;;;-142.11;97.15
14800;BME280;7491;57.750;11.970;2023-07-09T10:25:30;74708.47;;;-142.11;97.84
14800;BME280;7491;57.750;11.970;2023-07-09T10:28:22;74724.78;;;-142.11;98.20
14800;BME280;7491;57.750;11.970;2023-07-09T10:31:00;74712.56;;;-142.11;99.72
14800;BME280;7491;57.750;11.970;2023-07-09T10:33:38;74726.81;;;-142.11;98.33
14800;BME280;7491;57.750;11.970;2023-07-09T10:36:23;74745.16;;;-142.11;99.61
14800;BME280;7491;57.750;11.970;2023-07-09T10:38:58;74728.88;;;-142.11;100.00
14800;BME280;7491;57.750;11.970;2023-07-09T10:41:28;74737.00;;;-142.11;100.00
14800;BME280;7491;57.750;11.970;2023-07-09T10:44:00;74728.88;;;-142.11;100.00
14800;BME280;7491;57.750;11.970;2023-07-09T10:46:34;74710.53;;;-142.11;100.00
14800;BME280;7491;57.750;11.970;2023-07-09T10:49:05;74706.44;;;-142.11;100.00
14800;BME280;7491;57.750;11.970;2023-07-09T10:51:38;74694.22;;;-142.11;100.00
14800;BME280;7491;57.750;11.970;2023-07-09T10:54:12;74704.41;;;-142.11;100.00
14800;BME280;7491;57.750;11.970;2023-07-09T10:56:42;74704.41;;;-142.11;100.00
14800;BME280;7491;57.750;11.970;2023-07-09T10:59:18;74698.28;;;-142.11;100.00
14800;BME280;7491;57.750;11.970;2023-07-09T11:01:50;74686.06;;;-142.11;100.00
14800;BME280;7491;57.750;11.970;2023-07-09T11:04:26;74677.91;;;-142.11;100.00
14800;BME280;7491;57.750;11.970;2023-07-09T11:06:57;74679.97;;;-142.11;100.00
14800;BME280;7491;57.750;11.970;2023-07-09T11:09:31;74655.50;;;-142.11;100.00
14800;BME280;7491;57.750;11.970;2023-07-09T11:12:04;74667.72;;;-142.11;99.08
14800;BME280;7491;57.750;11.970;2023-07-09T11:14:35;74677.91;;;-142.11;98.65
14800;BME280;7491;57.750;11.970;2023-07-09T11:17:04;74679.97;;;-142.11;98.62
14800;BME280;7491;57.750;11.970;2023-07-09T11:19:41;74663.66;;;-142.11;98.02
14800;BME280;7491;57.750;11.970;2023-07-09T11:22:15;74655.50;;;-142.11;98.70
14800;BME280;7491;57.750;11.970;2023-07-09T11:24:49;74647.34;;;-142.11;97.09
14800;BME280;7491;57.750;11.970;2023-07-09T11:27:20;74657.53;;;-142.11;98.20
14800;BME280;7491;57.750;11.970;2023-07-09T11:29:49;74663.66;;;-142.11;98.50
14800;BME280;7491;57.750;11.970;2023-07-09T11:32:22;74622.91;;;-142.11;99.06
14800;BME280;7491;57.750;11.970;2023-07-09T11:34:49;74606.59;;;-142.11;98.58
14800;BME280;7491;57.750;11.970;2023-07-09T11:37:17;74624.94;;;-142.11;95.91
14800;BME280;7491;57.750;11.970;2023-07-09T11:39:46;74645.31;;;-142.11;96.47
14800;BME280;7491;57.750;11.970;2023-07-09T11:42:30;74645.31;;;-142.11;96.07
14800;BME280;7491;57.750;11.970;2023-07-09T11:45:05;74639.22;;;-142.11;96.48
14800;BME280;7491;57.750;11.970;2023-07-09T11:47:37;74614.75;;;-142.11;96.85
14800;BME280;7491;57.750;11.970;2023-07-09T11:50:16;74624.94;;;-142.11;96.41
14800;BME280;7491;57.750;11.970;2023-07-09T11:52:51;74626.97;;;-142.11;95.81
14800;BME280;7491;57.750;11.970;2023-07-09T11:55:25;74633.09;;;-142.11;96.34
14800;BME280;7491;57.750;11.970;2023-07-09T11:57:55;74606.59;;;-142.11;97.56
14800;BME280;7491;57.750;11.970;2023-07-09T12:00:22;74584.19;;;-142.11;96.36
14800;BME280;7491;57.750;11.970;2023-07-09T12:02:50;74578.06;;;-142.11;96.21
14800;BME280;7491;57.750;11.970;2023-07-09T12:05:21;74578.06;;;-142.11;96.05
14800;BME280;7491;57.750;11.970;2023-07-09T12:07:48;74567.88;;;-142.11;96.22
14800;BME280;7491;57.750;11.970;2023-07-09T12:10:19;74559.75;;;-142.11;98.23
14800;BME280;7491;57.750;11.970;2023-07-09T12:12:48;74549.56;;;-142.11;96.19
14800;BME280;7491;57.750;11.970;2023-07-09T12:15:22;74561.78;;;-142.11;94.47
14800;BME280;7491;57.750;11.970;2023-07-09T12:17:54;74559.75;;;-142.11;94.42
14800;BME280;7491;57.750;11.970;2023-07-09T12:20:21;74543.44;;;-142.11;96.58
14800;BME280;7491;57.750;11.970;2023-07-09T12:22:48;74525.09;;;-142.11;95.53
14800;BME280;7491;57.750;11.970;2023-07-09T12:25:20;74525.09;;;-142.11;94.82
14800;BME280;7491;57.750;11.970;2023-07-09T12:27:48;74527.13;;;-142.11;94.49
14800;BME280;7491;57.750;11.970;2023-07-09T12:30:15;74537.31;;;-142.11;94.96
14800;BME280;7491;57.750;11.970;2023-07-09T12:32:48;74539.38;;;-142.11;93.16
14800;BME280;7491;57.750;11.970;2023-07-09T12:35:16;74523.06;;;-142.11;92.89
14800;BME280;7491;57.750;11.970;2023-07-09T12:37:45;74519.00;;;-142.11;92.83
14800;BME280;7491;57.750;11.970;2023-07-09T12:40:14;74510.84;;;-142.11;93.72
14800;BME280;7491;57.750;11.970;2023-07-09T12:42:43;74514.91;;;-142.11;93.22
14800;BME280;7491;57.750;11.970;2023-07-09T12:45:15;74492.50;;;-142.11;93.99